Time;durP1;ratioP1;P1;durP2;ratioP2;P2;SDS_P1;SDS_P2;PMS_P1;PMS_P2;Temp;Humidity;BMP_temperature;BMP_pressure;BME280_temperature;BME280_humidity;BME280_pressure;Samples;Min_cycle;Max_cycle;Signal;HPM_P1;HPM_P2
2022/12/26 00:01:09;;;;;;;87.50;25.85;;;8.60;99.90;;;;;;5056797;28;20048;-58
2022/12/26 00:03:35;;;;;;;74.38;22.85;;;8.60;99.90;;;;;;5057195;28;20055;-59
2022/12/26 00:06:00;;;;;;;100.15;28.20;;;8.60;99.90;;;;;;5061927;28;20040;-59
2022/12/26 00:08:26;;;;;;;108.85;29.00;;;8.60;99.90;;;;;;5026075;28;20052;-58
2022/12/26 00:10:52;;;;;;;108.57;28.92;;;8.60;99.90;;;;;;5057948;28;20520;-58
2022/12/26 00:13:18;;;;;;;112.95;28.33;;;8.60;99.90;;;;;;5060872;28;20469;-59
2022/12/26 00:15:44;;;;;;;120.88;30.73;;;8.60;99.90;;;;;;5069604;28;20487;-59
2022/12/26 00:18:09;;;;;;;100.57;26.92;;;8.50;99.90;;;;;;5052750;28;20043;-58
2022/12/26 00:20:35;;;;;;;97.72;26.92;;;8.60;99.90;;;;;;5062868;28;20044;-59
2022/12/26 00:23:01;;;;;;;100.10;26.40;;;8.60;99.90;;;;;;5028353;28;20455;-59
2022/12/26 00:25:27;;;;;;;118.85;29.88;;;8.60;99.90;;;;;;5079843;28;20113;-58
2022/12/26 00:27:53;;;;;;;101.40;27.88;;;8.60;99.90;;;;;;5054898;28;20138;-59
2022/12/26 00:30:18;;;;;;;94.25;28.65;;;8.60;99.90;;;;;;5059895;28;20048;-59
2022/12/26 00:32:44;;;;;;;123.72;29.70;;;8.60;99.90;;;;;;5039070;28;20037;-59
2022/12/26 00:35:10;;;;;;;108.63;31.08;;;8.60;99.90;;;;;;5058268;28;20502;-58
2022/12/26 00:37:35;;;;;;;102.28;28.00;;;8.60;99.90;;;;;;5059191;28;20040;-58
2022/12/26 00:40:01;;;;;;;131.13;29.80;;;8.60;99.90;;;;;;5060401;28;20059;-59
2022/12/26 00:42:27;;;;;;;99.07;28.50;;;8.60;99.90;;;;;;5056427;28;20049;-59
2022/12/26 00:44:53;;;;;;;109.18;28.17;;;8.60;99.90;;;;;;5043162;28;20059;-59
2022/12/26 00:47:19;;;;;;;122.68;30.15;;;8.60;99.90;;;;;;5061034;28;20024;-59
2022/12/26 00:49:44;;;;;;;129.23;28.05;;;8.60;99.90;;;;;;5062592;28;20049;-58
2022/12/26 00:52:10;;;;;;;116.47;28.20;;;8.60;99.90;;;;;;5077265;28;20058;-57
2022/12/26 00:54:36;;;;;;;119.93;27.73;;;8.60;99.90;;;;;;5078601;28;20249;-59
2022/12/26 00:57:01;;;;;;;137.27;28.48;;;8.60;99.90;;;;;;5052740;28;20087;-58
2022/12/26 00:59:27;;;;;;;114.90;26.50;;;8.60;99.90;;;;;;5057408;28;20082;-58
2022/12/26 01:01:53;;;;;;;142.48;29.15;;;8.60;99.90;;;;;;5059103;28;20051;-58
2022/12/26 01:04:18;;;;;;;143.65;28.35;;;8.60;99.90;;;;;;5037029;28;20160;-59
2022/12/26 01:06:44;;;;;;;146.95;30.02;;;8.60;99.90;;;;;;5079775;28;20036;-59
2022/12/26 01:09:12;;;;;;;131.23;26.02;;;8.60;99.90;;;;;;5068122;28;20093;-59
2022/12/26 01:11:40;;;;;;;127.70;28.33;;;8.60;99.90;;;;;;5034815;28;20398;-58
2022/12/26 01:14:10;;;;;;;145.68;29.75;;;8.60;99.90;;;;;;5039948;28;20506;-59
2022/12/26 01:16:37;;;;;;;132.65;28.15;;;8.60;99.90;;;;;;5039919;28;20388;-59
2022/12/26 01:19:03;;;;;;;156.98;29.58;;;8.60;99.90;;;;;;5034844;28;20039;-59
2022/12/26 01:21:28;;;;;;;178.43;32.35;;;8.60;99.90;;;;;;5051434;28;20502;-59
2022/12/26 01:23:54;;;;;;;125.57;28.05;;;8.60;99.90;;;;;;5037337;28;20040;-58
2022/12/26 01:26:20;;;;;;;137.68;29.92;;;8.60;99.90;;;;;;5060207;28;20044;-58
2022/12/26 01:28:50;;;;;;;177.48;33.75;;;8.60;99.90;;;;;;5055963;28;20048;-59
2022/12/26 01:31:17;;;;;;;120.13;27.73;;;8.60;99.90;;;;;;5063808;28;20056;-59
2022/12/26 01:33:43;;;;;;;106.57;27.30;;;8.60;99.90;;;;;;5039365;28;20051;-59
2022/12/26 01:36:08;;;;;;;120.75;29.13;;;8.60;99.90;;;;;;5069742;28;20150;-60
2022/12/26 01:38:34;;;;;;;111.28;28.00;;;8.60;99.90;;;;;;5059155;28;20028;-58
2022/12/26 01:41:18;;;;;;;105.47;28.15;;;8.60;99.90;;;;;;5054867;28;20488;-60
2022/12/26 01:43:53;;;;;;;97.55;27.17;;;8.60;99.90;;;;;;5062833;28;20552;-59
2022/12/26 01:46:24;;;;;;;106.85;28.25;;;8.60;99.90;;;;;;5055738;28;20040;-58
2022/12/26 01:48:51;;;;;;;92.75;26.90;;;8.60;99.90;;;;;;5058688;28;20032;-59
2022/12/26 01:51:20;;;;;;;92.53;26.17;;;8.60;99.90;;;;;;5039802;28;20036;-59
2022/12/26 01:53:49;;;;;;;87.28;24.98;;;8.60;99.90;;;;;;5072275;28;20282;-59
2022/12/26 01:56:20;;;;;;;91.25;25.63;;;8.70;99.90;;;;;;5055799;28;20044;-59
2022/12/26 01:58:54;;;;;;;70.97;22.63;;;8.70;99.90;;;;;;5059151;28;20048;-59
2022/12/26 02:01:26;;;;;;;80.07;24.33;;;8.70;99.90;;;;;;5062200;28;20036;-59
2022/12/26 02:06:37;;;;;;;66.80;22.42;;;8.70;99.90;;;;;;5060204;28;20047;-59
2022/12/26 02:09:03;;;;;;;65.18;21.27;;;8.70;99.90;;;;;;5056274;28;20419;-59
2022/12/26 02:11:36;;;;;;;61.72;21.60;;;8.70;99.90;;;;;;5060803;28;20044;-59
2022/12/26 02:14:05;;;;;;;59.00;21.80;;;8.70;99.90;;;;;;5060010;28;20479;-58
2022/12/26 02:16:32;;;;;;;58.13;21.70;;;8.70;99.90;;;;;;5040447;28;20058;-59
2022/12/26 02:18:58;;;;;;;63.90;22.27;;;8.70;99.90;;;;;;5058233;28;20473;-58
2022/12/26 02:21:42;;;;;;;64.95;22.77;;;8.70;99.90;;;;;;5022726;28;20044;-58
2022/12/26 02:24:40;;;;;;;56.78;21.58;;;8.70;99.90;;;;;;5052043;28;20487;-59
2022/12/26 02:27:15;;;;;;;59.78;22.63;;;8.70;99.90;;;;;;5044137;28;20048;-58
2022/12/26 02:29:59;;;;;;;59.80;23.88;;;8.70;99.90;;;;;;5062073;28;20043;-59
2022/12/26 02:32:31;;;;;;;65.00;23.95;;;8.80;99.90;;;;;;5039804;28;20062;-58
2022/12/26 02:35:08;;;;;;;69.60;25.65;;;8.80;99.90;;;;;;5058900;28;20499;-58
2022/12/26 02:37:57;;;;;;;72.18;27.17;;;8.80;99.90;;;;;;5054556;28;20370;-59
2022/12/26 02:40:45;;;;;;;75.65;27.27;;;8.80;99.90;;;;;;5059618;28;20131;-59
2022/12/26 02:43:22;;;;;;;77.28;29.48;;;8.80;99.90;;;;;;5056398;28;20036;-59
2022/12/26 02:49:14;;;;;;;85.10;30.88;;;8.90;99.90;;;;;;5058743;28;20600;-59
2022/12/26 03:13:12;;;;;;;89.93;34.88;;;8.90;99.90;;;;;;5051556;28;20047;-58
2022/12/26 03:18:51;;;;;;;90.63;33.65;;;8.90;99.90;;;;;;5060457;28;20091;-59
2022/12/26 03:21:23;;;;;;;84.63;33.97;;;8.90;99.90;;;;;;5059701;28;20036;-59
2022/12/26 03:23:54;;;;;;;87.68;35.30;;;8.90;99.90;;;;;;5037005;28;20592;-58
2022/12/26 03:26:40;;;;;;;92.05;34.00;;;8.80;99.90;;;;;;5053595;28;20519;-59
2022/12/26 03:32:09;;;;;;;81.25;31.63;;;8.80;99.90;;;;;;5083592;28;20568;-59
2022/12/26 03:34:40;;;;;;;88.72;32.67;;;8.80;99.90;;;;;;5064114;28;20044;-59
2022/12/26 03:37:53;;;;;;;83.38;31.63;;;8.80;99.90;;;;;;5062187;28;20392;-59
2022/12/26 04:41:34;;;;;;;63.50;28.85;;;8.90;99.90;;;;;;5072906;28;20060;-59
2022/12/26 04:46:41;;;;;;;62.55;29.60;;;8.90;99.90;;;;;;5055665;28;20495;-59
2022/12/26 04:51:56;;;;;;;53.55;29.63;;;8.90;99.90;;;;;;5051300;28;20102;-58
2022/12/26 04:54:21;;;;;;;59.40;31.08;;;9.00;99.90;;;;;;5043600;28;20044;-59
2022/12/26 04:56:47;;;;;;;52.92;27.98;;;9.00;99.90;;;;;;5068852;22;20055;-56
2022/12/26 04:59:14;;;;;;;48.75;26.50;;;9.00;99.90;;;;;;5076442;28;20044;-55
2022/12/26 05:10:27;;;;;;;51.33;26.88;;;8.90;99.90;;;;;;5080439;28;20289;-57
2022/12/26 05:12:53;;;;;;;50.72;27.17;;;8.90;99.90;;;;;;5076894;28;20098;-58
2022/12/26 05:15:20;;;;;;;48.60;26.33;;;8.90;99.90;;;;;;5083585;28;20044;-58
2022/12/26 05:29:02;;;;;;;48.90;27.35;;;8.80;99.90;;;;;;5082670;28;20048;-58
2022/12/26 05:31:28;;;;;;;43.72;25.80;;;8.80;99.90;;;;;;5067243;28;20085;-55
2022/12/26 05:36:58;;;;;;;43.15;25.58;;;8.80;99.90;;;;;;5070065;28;20047;-56
2022/12/26 05:39:24;;;;;;;41.80;25.42;;;8.90;99.90;;;;;;5095904;28;20382;-58
2022/12/26 05:41:49;;;;;;;41.00;24.65;;;8.90;99.90;;;;;;5078596;28;20055;-57
2022/12/26 05:44:15;;;;;;;41.15;25.08;;;8.90;99.90;;;;;;5092408;28;20084;-55
2022/12/26 05:46:41;;;;;;;41.10;24.88;;;8.90;99.90;;;;;;5073507;28;20035;-56
2022/12/26 05:49:08;;;;;;;37.72;23.42;;;8.90;99.90;;;;;;5091040;28;20506;-55
2022/12/26 05:51:34;;;;;;;35.25;22.63;;;8.90;99.90;;;;;;5075755;28;20089;-53
2022/12/26 05:54:01;;;;;;;40.13;23.35;;;8.90;99.90;;;;;;5067452;28;20122;-56
2022/12/26 05:56:27;;;;;;;35.17;22.23;;;8.90;99.90;;;;;;5053504;28;20074;-57
2022/12/26 05:58:59;;;;;;;38.47;20.95;;;8.90;99.90;;;;;;5089853;28;20040;-54
2022/12/26 06:01:27;;;;;;;35.17;20.33;;;9.00;99.90;;;;;;5087908;28;20039;-57
2022/12/26 06:03:55;;;;;;;36.25;21.50;;;9.00;99.90;;;;;;5058376;28;20118;-57
2022/12/26 06:06:22;;;;;;;32.47;21.25;;;9.00;99.90;;;;;;5067754;28;20039;-59
2022/12/26 06:08:49;;;;;;;35.65;21.35;;;9.10;99.90;;;;;;5082280;28;20051;-54
2022/12/26 06:11:16;;;;;;;33.03;20.35;;;9.10;99.90;;;;;;5081828;28;20067;-57
2022/12/26 06:13:42;;;;;;;27.08;18.10;;;9.10;99.90;;;;;;5083884;28;20574;-58
2022/12/26 06:16:14;;;;;;;29.17;18.60;;;9.10;99.90;;;;;;5085754;28;20675;-57
2022/12/26 06:18:40;;;;;;;29.83;18.20;;;9.20;99.90;;;;;;5080637;28;20083;-58
2022/12/26 06:21:09;;;;;;;26.98;17.73;;;9.20;99.90;;;;;;5052899;28;20680;-56
2022/12/26 06:23:35;;;;;;;23.48;17.25;;;9.20;99.90;;;;;;5083002;28;20036;-57
2022/12/26 06:26:01;;;;;;;29.45;17.25;;;9.20;99.90;;;;;;5064665;28;20052;-57
2022/12/26 06:28:27;;;;;;;27.52;17.88;;;9.20;99.90;;;;;;5054960;28;20058;-55
2022/12/26 06:30:53;;;;;;;26.73;18.63;;;9.20;99.90;;;;;;5084418;28;20465;-56
2022/12/26 06:33:18;;;;;;;27.33;19.00;;;9.20;99.90;;;;;;5061107;28;20461;-55
2022/12/26 06:35:45;;;;;;;26.10;18.05;;;9.20;99.90;;;;;;5084625;28;21867;-55
2022/12/26 06:38:11;;;;;;;25.83;17.05;;;9.20;99.90;;;;;;5084637;28;20112;-53
2022/12/26 06:40:39;;;;;;;27.45;18.17;;;9.10;99.90;;;;;;5050763;28;20126;-55
2022/12/26 06:43:05;;;;;;;24.92;18.70;;;9.10;99.90;;;;;;5080858;28;20482;-57
2022/12/26 06:45:31;;;;;;;31.30;18.52;;;9.10;99.90;;;;;;5085197;28;20039;-58
2022/12/26 06:47:58;;;;;;;25.92;17.67;;;9.10;99.90;;;;;;5068326;28;20667;-56
2022/12/26 06:50:24;;;;;;;30.23;16.83;;;9.00;99.90;;;;;;5082130;28;20083;-58
2022/12/26 06:52:50;;;;;;;25.77;17.30;;;9.00;99.90;;;;;;5086048;28;20206;-58
2022/12/26 06:55:15;;;;;;;25.40;16.27;;;9.00;99.90;;;;;;5074923;28;20421;-56
2022/12/26 06:57:41;;;;;;;25.60;16.23;;;9.00;99.90;;;;;;5083985;28;20040;-56
2022/12/26 07:00:07;;;;;;;24.70;16.70;;;8.90;99.90;;;;;;5083746;28;20529;-59
2022/12/26 07:02:33;;;;;;;25.23;16.13;;;8.90;99.90;;;;;;5067536;28;20142;-57
2022/12/26 07:04:59;;;;;;;23.55;15.85;;;8.90;99.90;;;;;;5061754;28;20035;-56
2022/12/26 07:07:24;;;;;;;23.48;15.55;;;8.90;99.90;;;;;;5065510;28;20040;-56
2022/12/26 07:09:50;;;;;;;21.33;14.77;;;8.80;99.90;;;;;;5084903;28;20032;-57
2022/12/26 07:12:19;;;;;;;21.17;14.07;;;8.80;99.90;;;;;;5084775;28;20035;-58
2022/12/26 07:14:45;;;;;;;22.63;14.07;;;8.80;99.90;;;;;;5086806;28;20036;-57
2022/12/26 07:17:11;;;;;;;20.23;13.40;;;8.80;99.90;;;;;;5067758;28;20128;-59
2022/12/26 07:19:37;;;;;;;22.40;13.15;;;8.80;99.90;;;;;;5049570;28;20044;-57
2022/12/26 07:22:02;;;;;;;25.77;13.32;;;8.80;99.90;;;;;;5072698;28;20047;-56
2022/12/26 07:24:28;;;;;;;17.42;11.57;;;8.70;99.90;;;;;;5083718;28;20074;-59
2022/12/26 07:26:54;;;;;;;19.05;11.63;;;8.70;99.90;;;;;;5093621;28;20039;-56
2022/12/26 07:29:21;;;;;;;16.40;11.05;;;8.70;99.90;;;;;;5079500;28;20717;-53
2022/12/26 07:31:47;;;;;;;17.15;10.50;;;8.70;99.90;;;;;;5090426;28;20122;-57
2022/12/26 07:34:13;;;;;;;16.88;9.80;;;8.70;99.90;;;;;;5104148;28;20069;-58
2022/12/26 07:36:39;;;;;;;17.30;9.75;;;8.70;99.90;;;;;;5087726;28;20035;-58
2022/12/26 07:39:05;;;;;;;15.77;9.35;;;8.70;99.90;;;;;;5093854;28;20079;-57
2022/12/26 07:44:15;;;;;;;14.45;9.68;;;8.70;99.90;;;;;;5083961;28;20131;-56
2022/12/26 07:46:41;;;;;;;14.93;8.93;;;8.70;99.90;;;;;;5088027;28;20123;-55
2022/12/26 07:49:07;;;;;;;15.52;8.80;;;8.70;99.90;;;;;;5092316;28;20122;-58
2022/12/26 07:51:33;;;;;;;14.18;9.10;;;8.70;99.90;;;;;;5066583;28;20134;-56
2022/12/26 07:53:58;;;;;;;13.95;8.85;;;8.80;99.90;;;;;;5089049;28;20051;-59
2022/12/26 07:56:24;;;;;;;17.73;8.82;;;8.80;99.90;;;;;;5089283;28;20035;-58
2022/12/26 07:58:51;;;;;;;14.60;9.05;;;8.80;99.90;;;;;;5061470;28;20044;-56
2022/12/26 08:01:17;;;;;;;16.08;8.40;;;8.90;99.90;;;;;;5073250;28;20081;-56
2022/12/26 08:03:42;;;;;;;16.90;8.77;;;8.90;99.90;;;;;;5084409;28;20032;-58
2022/12/26 08:06:10;;;;;;;15.25;8.90;;;8.90;99.90;;;;;;5097245;28;20093;-54
2022/12/26 08:08:36;;;;;;;12.95;7.65;;;8.90;99.90;;;;;;5068774;28;20079;-56
2022/12/26 08:11:05;;;;;;;15.88;8.00;;;8.90;99.90;;;;;;5097596;28;20050;-58
2022/12/26 08:13:31;;;;;;;13.40;8.00;;;9.00;99.90;;;;;;5086195;28;20036;-55
2022/12/26 08:15:57;;;;;;;11.55;7.55;;;9.00;99.90;;;;;;5063738;28;20277;-56
2022/12/26 08:18:24;;;;;;;12.68;7.60;;;9.00;99.90;;;;;;5065039;28;20036;-56
2022/12/26 08:20:50;;;;;;;12.88;7.20;;;9.10;99.90;;;;;;5089323;28;20043;-58
2022/12/26 08:23:16;;;;;;;16.02;7.63;;;9.00;99.90;;;;;;5078370;28;20460;-53
2022/12/26 08:25:42;;;;;;;14.73;7.88;;;9.00;99.90;;;;;;5072796;28;20046;-56
2022/12/26 08:28:08;;;;;;;15.95;7.60;;;9.00;99.90;;;;;;5081081;28;20044;-57
2022/12/26 08:30:33;;;;;;;15.70;7.40;;;9.00;99.90;;;;;;5095797;27;20410;-56
2022/12/26 08:32:59;;;;;;;16.92;8.13;;;9.00;99.90;;;;;;5094231;28;20044;-55
2022/12/26 08:35:25;;;;;;;15.05;7.93;;;9.00;99.90;;;;;;5102494;28;20040;-56
2022/12/26 08:37:51;;;;;;;15.68;8.40;;;9.00;99.90;;;;;;5085737;28;20497;-54
2022/12/26 08:40:16;;;;;;;16.52;8.48;;;9.00;99.90;;;;;;5062128;28;20254;-55
2022/12/26 08:42:42;;;;;;;16.35;7.72;;;9.00;99.90;;;;;;5077084;28;20044;-55
2022/12/26 08:45:08;;;;;;;13.50;8.23;;;9.00;99.90;;;;;;5064151;28;20512;-58
2022/12/26 08:47:34;;;;;;;13.23;8.63;;;9.00;99.90;;;;;;5086203;28;20042;-59
2022/12/26 08:49:59;;;;;;;15.65;8.77;;;9.00;99.90;;;;;;5086388;28;20393;-58
2022/12/26 08:52:25;;;;;;;14.48;8.07;;;9.00;99.90;;;;;;5066618;28;20039;-57
2022/12/26 08:54:51;;;;;;;15.95;8.88;;;9.00;99.90;;;;;;5077808;28;20110;-58
2022/12/26 08:57:17;;;;;;;21.15;9.02;;;9.00;99.90;;;;;;5090695;28;20031;-59
2022/12/26 08:59:42;;;;;;;14.25;8.13;;;9.00;99.90;;;;;;5088271;28;20044;-59
2022/12/26 09:02:10;;;;;;;15.25;8.07;;;9.00;99.90;;;;;;5086295;28;20035;-58
2022/12/26 09:04:36;;;;;;;14.63;7.85;;;9.00;99.90;;;;;;5091206;28;20036;-58
2022/12/26 09:07:03;;;;;;;13.35;8.20;;;8.90;99.90;;;;;;5090055;28;20024;-58
2022/12/26 09:09:28;;;;;;;15.90;9.10;;;8.90;99.90;;;;;;5087341;28;20040;-57
2022/12/26 09:11:56;;;;;;;18.27;9.07;;;8.90;99.90;;;;;;5078022;28;20483;-57
2022/12/26 09:14:22;;;;;;;15.48;8.40;;;8.90;99.90;;;;;;5068366;28;20047;-55
2022/12/26 09:16:49;;;;;;;14.68;6.88;;;8.90;99.90;;;;;;5092569;28;20383;-58
2022/12/26 09:19:18;;;;;;;15.80;6.55;;;8.90;99.90;;;;;;5053982;28;20069;-55
2022/12/26 09:21:44;;;;;;;27.60;5.55;;;8.90;99.90;;;;;;5087990;28;20043;-55
2022/12/26 09:24:13;;;;;;;17.23;3.97;;;8.70;99.90;;;;;;5086534;28;20028;-56
2022/12/26 09:26:39;;;;;;;20.33;5.07;;;8.60;99.90;;;;;;5074257;28;20030;-55
2022/12/26 09:29:05;;;;;;;20.73;5.25;;;8.40;99.90;;;;;;5066658;28;20052;-58
2022/12/26 09:31:33;;;;;;;16.70;4.25;;;8.30;99.90;;;;;;5068454;28;20271;-59
2022/12/26 09:34:01;;;;;;;22.67;3.80;;;8.30;99.90;;;;;;5075655;28;20118;-56
2022/12/26 09:36:29;;;;;;;19.70;3.80;;;8.10;99.90;;;;;;5067457;28;20039;-57
2022/12/26 09:38:56;;;;;;;23.27;3.90;;;8.00;99.90;;;;;;5087025;28;20138;-56
2022/12/26 09:42:00;;;;;;;18.58;3.83;;;8.10;99.90;;;;;;5079392;28;20074;-57
2022/12/26 09:44:49;;;;;;;20.20;4.07;;;8.00;99.90;;;;;;5072466;28;20044;-56
2022/12/26 09:47:44;;;;;;;16.42;2.67;;;7.90;99.90;;;;;;5066580;28;20084;-57
2022/12/26 09:50:19;;;;;;;18.23;3.50;;;7.80;99.90;;;;;;5084025;28;20115;-56
2022/12/26 09:52:54;;;;;;;15.55;2.63;;;7.80;99.90;;;;;;5065650;28;20408;-56
2022/12/26 09:55:41;;;;;;;16.10;2.60;;;7.80;99.90;;;;;;5077806;28;20109;-57
2022/12/26 09:58:22;;;;;;;13.55;2.47;;;7.80;99.90;;;;;;5070325;28;20035;-58
2022/12/26 10:01:13;;;;;;;13.50;2.97;;;7.80;99.90;;;;;;5050539;28;20371;-56
2022/12/26 10:03:47;;;;;;;16.00;2.50;;;7.80;99.90;;;;;;5070476;28;20340;-55
2022/12/26 10:06:20;;;;;;;16.90;3.22;;;7.80;99.90;;;;;;5080602;28;20043;-56
2022/12/26 10:08:49;;;;;;;18.58;2.40;;;7.90;99.90;;;;;;5081877;28;20158;-56
2022/12/26 10:11:29;;;;;;;14.45;4.25;;;7.80;99.90;;;;;;5087182;28;20448;-56
2022/12/26 10:14:02;;;;;;;15.40;2.60;;;7.90;99.90;;;;;;5058602;28;20047;-58
2022/12/26 10:16:52;;;;;;;22.13;3.85;;;7.90;99.90;;;;;;5080594;28;20494;-58
2022/12/26 10:19:46;;;;;;;12.57;3.08;;;7.80;99.90;;;;;;5064504;28;20035;-58
2022/12/26 10:22:27;;;;;;;14.85;3.25;;;7.70;99.90;;;;;;5087922;27;20082;-57
2022/12/26 10:24:56;;;;;;;19.80;3.58;;;7.70;99.90;;;;;;5074298;28;20390;-58
2022/12/26 10:27:25;;;;;;;14.35;3.70;;;7.60;99.90;;;;;;5063800;28;20117;-56
2022/12/26 10:30:04;;;;;;;18.92;3.40;;;7.50;99.90;;;;;;5075833;28;20413;-56
2022/12/26 10:32:38;;;;;;;17.48;5.20;;;7.30;99.90;;;;;;5081748;28;20293;-56
2022/12/26 10:35:40;;;;;;;18.42;3.95;;;7.40;99.90;;;;;;5074268;28;20274;-56
2022/12/26 10:38:25;;;;;;;13.95;3.53;;;7.30;99.90;;;;;;5063260;28;20044;-58
2022/12/26 10:40:54;;;;;;;11.75;2.88;;;7.30;99.90;;;;;;5088426;28;20040;-58
2022/12/26 10:43:30;;;;;;;12.27;3.20;;;7.30;99.90;;;;;;5062001;28;20123;-58
2022/12/26 10:46:21;;;;;;;11.60;3.38;;;7.30;99.90;;;;;;5071010;28;20035;-56
2022/12/26 10:48:47;;;;;;;16.50;2.88;;;7.30;99.90;;;;;;5089098;28;20481;-57
2022/12/26 10:51:14;;;;;;;12.60;2.60;;;7.30;99.90;;;;;;5062247;28;20510;-57
2022/12/26 10:53:48;;;;;;;15.95;2.92;;;7.30;99.90;;;;;;5053680;28;20052;-57
2022/12/26 10:56:14;;;;;;;;;;;7.40;99.90;;;;;;5071505;28;20113;-56
2022/12/26 11:01:35;;;;;;;12.82;2.70;;;7.40;99.90;;;;;;5078929;28;20101;-61
2022/12/26 11:04:14;;;;;;;13.73;2.67;;;7.40;99.90;;;;;;5090347;28;20517;-61
2022/12/26 11:06:42;;;;;;;16.25;2.30;;;7.40;99.90;;;;;;5078525;28;20514;-61
2022/12/26 11:09:34;;;;;;;14.73;2.05;;;7.40;99.90;;;;;;5043797;28;20048;-61
2022/12/26 11:12:01;;;;;;;9.93;2.20;;;7.40;99.90;;;;;;5042402;28;20418;-61
2022/12/26 11:14:37;;;;;;;7.95;1.38;;;7.30;99.90;;;;;;5061672;28;20497;-60
2022/12/26 11:17:10;;;;;;;8.02;1.63;;;7.30;99.90;;;;;;5062066;28;20361;-59
2022/12/26 11:19:40;;;;;;;15.40;2.23;;;7.30;99.90;;;;;;5066935;28;20053;-59
2022/12/26 11:22:26;;;;;;;12.73;2.30;;;7.40;99.90;;;;;;5063039;28;20044;-60
2022/12/26 11:25:26;;;;;;;12.05;2.45;;;7.40;99.90;;;;;;5062015;28;20036;-61
2022/12/26 11:27:57;;;;;;;13.13;3.08;;;7.40;99.90;;;;;;5058028;28;20135;-60
2022/12/26 11:30:37;;;;;;;14.05;3.97;;;7.40;99.90;;;;;;5062940;28;20036;-61
2022/12/26 11:33:13;;;;;;;11.50;2.08;;;7.40;99.90;;;;;;5059570;28;20576;-61
2022/12/26 11:35:53;;;;;;;15.75;3.80;;;7.40;99.90;;;;;;5060498;28;20101;-61
2022/12/26 11:38:35;;;;;;;16.02;3.25;;;7.40;99.90;;;;;;5062312;28;20044;-61
2022/12/26 11:41:32;;;;;;;19.70;3.42;;;7.40;99.90;;;;;;5066755;28;20090;-61
2022/12/26 11:44:08;;;;;;;19.92;4.40;;;7.40;99.90;;;;;;5064124;28;20524;-61
2022/12/26 11:46:42;;;;;;;22.00;4.15;;;7.40;99.90;;;;;;5062181;28;20116;-61
2022/12/26 11:49:28;;;;;;;11.65;2.50;;;7.50;99.90;;;;;;5065519;28;20044;-62
2022/12/26 11:51:56;;;;;;;13.30;2.80;;;7.50;99.90;;;;;;5069551;28;20044;-61
2022/12/26 11:54:26;;;;;;;22.02;4.07;;;7.50;99.90;;;;;;5069899;28;20051;-62
2022/12/26 11:57:12;;;;;;;21.55;3.85;;;7.50;99.90;;;;;;5070075;28;20044;-61
2022/12/26 11:59:38;;;;;;;14.77;3.65;;;7.50;99.90;;;;;;5067874;28;20090;-61
2022/12/26 12:02:39;;;;;;;16.50;4.35;;;7.70;99.90;;;;;;5061703;28;20120;-60
2022/12/26 12:05:27;;;;;;;13.77;2.85;;;7.70;99.90;;;;;;5068745;28;20044;-61
2022/12/26 12:08:11;;;;;;;17.45;4.07;;;7.80;99.90;;;;;;5059469;28;20048;-61
2022/12/26 12:10:58;;;;;;;17.17;3.38;;;7.70;99.90;;;;;;5069036;28;20052;-61
2022/12/26 12:13:48;;;;;;;12.93;3.40;;;7.60;99.90;;;;;;5047137;28;20052;-60
2022/12/26 12:16:26;;;;;;;15.27;4.20;;;7.60;99.90;;;;;;5069242;28;20044;-61
2022/12/26 12:19:13;;;;;;;19.40;3.75;;;7.50;99.90;;;;;;5069969;28;20051;-61
2022/12/26 12:22:02;;;;;;;18.73;2.72;;;7.40;99.90;;;;;;5060229;28;20231;-61
2022/12/26 12:24:40;;;;;;;15.10;3.55;;;7.40;99.90;;;;;;5053144;28;20041;-61
2022/12/26 12:27:20;;;;;;;15.10;3.72;;;7.40;99.90;;;;;;5071954;28;20045;-61
2022/12/26 12:30:14;;;;;;;16.77;3.53;;;7.50;99.90;;;;;;5072034;28;20127;-61
2022/12/26 12:33:02;;;;;;;18.85;4.03;;;7.50;99.90;;;;;;5067198;28;20040;-60
2022/12/26 12:35:28;;;;;;;16.55;3.15;;;7.50;99.90;;;;;;5069969;28;20051;-61
2022/12/26 12:38:24;;;;;;;17.92;4.63;;;7.50;99.90;;;;;;5066301;28;20045;-61
2022/12/26 12:41:06;;;;;;;20.30;3.63;;;7.60;99.90;;;;;;5053271;28;20125;-61
2022/12/26 12:43:58;;;;;;;19.70;2.35;;;7.60;99.90;;;;;;5070245;28;20086;-60
2022/12/26 12:46:37;;;;;;;18.23;3.50;;;7.70;99.90;;;;;;5070227;28;20039;-60
2022/12/26 12:49:18;;;;;;;25.48;3.70;;;7.80;99.90;;;;;;5071601;28;20115;-60
2022/12/26 12:52:07;;;;;;;15.68;2.55;;;7.80;99.90;;;;;;5061658;28;20063;-60
2022/12/26 12:55:12;;;;;;;18.35;2.90;;;7.70;99.90;;;;;;5057241;28;20043;-61
2022/12/26 12:57:59;;;;;;;15.38;2.88;;;7.70;99.90;;;;;;5040345;28;20048;-61
2022/12/26 13:00:32;;;;;;;11.25;3.72;;;7.70;99.90;;;;;;5066676;28;20567;-60
2022/12/26 13:03:37;;;;;;;13.95;3.65;;;7.70;99.90;;;;;;5067744;28;20041;-60
2022/12/26 13:06:24;;;;;;;15.75;3.63;;;7.60;99.90;;;;;;5056536;28;20116;-61
2022/12/26 13:08:52;;;;;;;13.93;2.78;;;7.60;99.90;;;;;;5063769;28;20090;-62
2022/12/26 13:11:43;;;;;;;14.82;3.78;;;7.60;99.90;;;;;;5058087;28;20033;-61
2022/12/26 13:14:25;;;;;;;12.43;2.15;;;7.50;99.90;;;;;;5064991;28;20044;-61
2022/12/26 13:17:01;;;;;;;11.77;2.90;;;7.50;99.90;;;;;;5063002;28;20052;-62
2022/12/26 13:19:33;;;;;;;13.27;3.10;;;7.50;99.90;;;;;;5066581;28;20411;-60
2022/12/26 13:22:09;;;;;;;16.33;3.30;;;7.50;99.90;;;;;;5061790;28;20059;-61
2022/12/26 13:24:40;;;;;;;21.08;3.38;;;7.40;99.90;;;;;;5068114;28;20074;-61
2022/12/26 13:27:12;;;;;;;18.05;4.70;;;7.40;99.90;;;;;;5052414;28;20127;-61
2022/12/26 13:29:44;;;;;;;15.32;4.63;;;7.40;99.90;;;;;;5069419;28;20032;-61
2022/12/26 13:32:20;;;;;;;16.20;4.32;;;7.40;99.90;;;;;;5070377;28;20044;-59
2022/12/26 13:34:47;;;;;;;19.45;3.95;;;7.40;99.90;;;;;;5069444;28;20395;-62
2022/12/26 13:37:36;;;;;;;28.35;3.80;;;7.40;99.90;;;;;;5072108;28;20036;-61
2022/12/26 13:40:11;;;;;;;18.83;4.28;;;7.30;99.90;;;;;;5058321;28;20056;-61
2022/12/26 13:45:41;;;;;;;25.00;9.20;;;7.20;99.90;;;;;;5076622;28;20036;-61
2022/12/26 13:48:16;;;;;;;16.38;5.47;;;7.20;99.90;;;;;;5066690;28;20068;-60
2022/12/26 13:50:52;;;;;;;16.80;3.90;;;7.20;99.90;;;;;;5064229;28;20164;-60
2022/12/26 13:53:24;;;;;;;22.10;4.97;;;7.20;99.90;;;;;;5061984;28;20553;-61
2022/12/26 13:55:56;;;;;;;17.77;4.13;;;7.20;99.90;;;;;;5053564;28;20061;-60
2022/12/26 13:58:33;;;;;;;17.02;3.40;;;7.20;99.90;;;;;;5063327;28;20044;-61
2022/12/26 14:01:18;;;;;;;15.20;2.47;;;7.20;99.90;;;;;;5061885;28;20062;-61
2022/12/26 14:03:52;;;;;;;22.90;2.78;;;7.00;99.90;;;;;;5061610;28;20037;-61
2022/12/26 14:06:33;;;;;;;12.13;2.42;;;7.10;99.90;;;;;;5069499;28;20036;-60
2022/12/26 14:09:11;;;;;;;16.15;2.50;;;7.10;99.90;;;;;;5060937;28;20099;-59
2022/12/26 14:12:11;;;;;;;11.95;2.83;;;7.00;99.90;;;;;;5061199;28;20036;-61
2022/12/26 14:14:51;;;;;;;12.73;2.25;;;7.00;99.90;;;;;;5057198;28;20086;-59
2022/12/26 14:17:36;;;;;;;12.13;2.47;;;7.00;99.90;;;;;;5071330;28;20043;-58
2022/12/26 14:20:30;;;;;;;19.80;2.92;;;7.00;99.90;;;;;;5068410;28;20107;-59
2022/12/26 14:23:27;;;;;;;17.02;2.65;;;7.00;99.90;;;;;;5069106;28;20044;-59
2022/12/26 14:25:53;;;;;;;12.63;2.13;;;7.00;99.90;;;;;;5080696;28;20032;-59
2022/12/26 14:28:28;;;;;;;12.32;2.42;;;6.90;99.90;;;;;;5067011;28;20059;-58
2022/12/26 14:31:20;;;;;;;8.05;2.10;;;6.90;99.90;;;;;;5067060;28;20226;-59
2022/12/26 14:34:11;;;;;;;18.42;3.25;;;6.80;99.90;;;;;;5051582;28;20104;-61
2022/12/26 14:37:02;;;;;;;18.92;2.72;;;6.80;99.90;;;;;;5063878;28;20070;-60
2022/12/26 14:39:31;;;;;;;13.00;2.13;;;6.80;99.90;;;;;;5075990;28;20091;-60
2022/12/26 14:44:55;;;;;;;16.63;3.83;;;6.70;99.90;;;;;;5067398;28;20037;-60
2022/12/26 14:47:43;;;;;;;14.98;3.65;;;6.70;99.90;;;;;;5059106;28;20089;-60
2022/12/26 14:50:31;;;;;;;16.27;3.45;;;6.70;99.90;;;;;;5068193;28;20094;-61
2022/12/26 14:53:27;;;;;;;16.45;2.78;;;6.60;99.90;;;;;;5067186;28;20044;-58
2022/12/26 14:56:14;;;;;;;19.00;3.63;;;6.60;99.90;;;;;;5049527;28;20037;-60
2022/12/26 14:58:44;;;;;;;11.90;2.65;;;6.60;99.90;;;;;;5066893;28;20041;-60
2022/12/26 15:01:14;;;;;;;19.80;2.97;;;6.50;99.90;;;;;;5063619;28;20044;-59
2022/12/26 15:03:45;;;;;;;9.55;2.63;;;6.50;99.90;;;;;;5063443;28;20510;-59
2022/12/26 15:06:27;;;;;;;14.05;3.40;;;6.50;99.90;;;;;;5061526;28;20372;-58
2022/12/26 15:08:56;;;;;;;10.80;2.33;;;6.50;99.90;;;;;;5068173;28;20048;-59
2022/12/26 15:12:01;;;;;;;18.02;3.75;;;6.40;99.90;;;;;;5040514;28;20517;-60
2022/12/26 15:14:52;;;;;;;15.43;3.40;;;6.40;99.90;;;;;;5054581;28;20058;-59
2022/12/26 15:17:18;;;;;;;15.15;2.80;;;6.40;99.90;;;;;;5068925;28;20054;-60
2022/12/26 15:19:43;;;;;;;17.13;2.47;;;6.30;99.90;;;;;;5066090;28;20044;-60
2022/12/26 15:22:46;;;;;;;13.57;3.05;;;6.30;99.90;;;;;;5070665;28;20044;-60
2022/12/26 15:25:36;;;;;;;17.83;2.85;;;6.30;99.90;;;;;;5065821;28;20657;-60